sensor_id;sensor_type;location;lat;lon;timestamp;noise_LAeq;noise_LA_min;noise_LA_max;noise_LA01;noise_LA95
77135;Laerm;48586;50.122;18.972;2023-05-14T00:00:47;38.93;34.50;49.03;;
77135;Laerm;48586;50.122;18.972;2023-05-14T00:02:50;40.81;34.34;53.20;;
77135;Laerm;48586;50.122;18.972;2023-05-14T00:04:55;40.33;34.95;49.18;;
77135;Laerm;48586;50.122;18.972;2023-05-14T00:07:02;44.41;35.01;61.90;;
77135;Laerm;48586;50.122;18.972;2023-05-14T00:09:06;36.14;34.23;40.16;;
77135;Laerm;48586;50.122;18.972;2023-05-14T00:11:11;40.98;34.50;50.07;;
77135;Laerm;48586;50.122;18.972;2023-05-14T00:13:15;36.32;34.38;42.12;;
77135;Laerm;48586;50.122;18.972;2023-05-14T00:15:19;41.41;34.45;55.84;;
77135;Laerm;48586;50.122;18.972;2023-05-14T00:17:24;42.33;34.55;52.13;;
77135;Laerm;48586;50.122;18.972;2023-05-14T00:19:28;39.97;34.70;50.87;;
77135;Laerm;48586;50.122;18.972;2023-05-14T00:21:32;36.92;34.28;43.72;;
77135;Laerm;48586;50.122;18.972;2023-05-14T00:23:39;38.70;34.48;50.95;;
77135;Laerm;48586;50.122;18.972;2023-05-14T00:25:43;45.63;34.86;58.14;;
77135;Laerm;48586;50.122;18.972;2023-05-14T00:27:47;42.49;34.94;52.94;;
77135;Laerm;48586;50.122;18.972;2023-05-14T00:29:52;35.65;34.25;41.70;;
77135;Laerm;48586;50.122;18.972;2023-05-14T00:31:56;43.10;34.71;56.22;;
77135;Laerm;48586;50.122;18.972;2023-05-14T00:34:01;41.65;34.15;53.67;;
77135;Laerm;48586;50.122;18.972;2023-05-14T00:36:06;41.92;34.33;50.11;;
77135;Laerm;48586;50.122;18.972;2023-05-14T00:38:11;37.84;34.05;47.32;;
77135;Laerm;48586;50.122;18.972;2023-05-14T00:40:26;36.73;34.37;51.47;;
77135;Laerm;48586;50.122;18.972;2023-05-14T00:42:31;41.20;34.78;51.47;;
77135;Laerm;48586;50.122;18.972;2023-05-14T00:44:35;35.47;33.99;37.09;;
77135;Laerm;48586;50.122;18.972;2023-05-14T00:46:39;40.86;34.19;53.14;;
77135;Laerm;48586;50.122;18.972;2023-05-14T00:48:45;36.94;34.10;45.00;;
77135;Laerm;48586;50.122;18.972;2023-05-14T00:50:50;43.63;34.93;52.73;;
77135;Laerm;48586;50.122;18.972;2023-05-14T00:52:54;36.29;34.32;48.17;;
77135;Laerm;48586;50.122;18.972;2023-05-14T00:55:02;41.76;34.44;53.15;;
77135;Laerm;48586;50.122;18.972;2023-05-14T00:57:10;45.17;35.32;67.17;;
77135;Laerm;48586;50.122;18.972;2023-05-14T00:59:14;36.92;34.29;50.24;;
77135;Laerm;48586;50.122;18.972;2023-05-14T01:01:19;35.59;33.98;38.20;;
77135;Laerm;48586;50.122;18.972;2023-05-14T01:03:23;35.70;34.21;38.23;;
77135;Laerm;48586;50.122;18.972;2023-05-14T01:05:37;37.74;34.48;43.22;;
77135;Laerm;48586;50.122;18.972;2023-05-14T01:07:54;39.97;34.42;47.27;;
77135;Laerm;48586;50.122;18.972;2023-05-14T01:10:08;39.05;34.41;50.31;;
77135;Laerm;48586;50.122;18.972;2023-05-14T01:12:28;36.60;34.57;41.82;;
77135;Laerm;48586;50.122;18.972;2023-05-14T01:14:53;37.11;34.06;45.87;;
77135;Laerm;48586;50.122;18.972;2023-05-14T01:17:01;36.03;33.96;41.22;;
77135;Laerm;48586;50.122;18.972;2023-05-14T01:19:20;40.72;34.25;49.63;;
77135;Laerm;48586;50.122;18.972;2023-05-14T01:21:42;37.70;33.99;47.73;;
77135;Laerm;48586;50.122;18.972;2023-05-14T01:23:47;35.40;33.86;38.02;;
77135;Laerm;48586;50.122;18.972;2023-05-14T01:25:51;36.59;34.10;49.54;;
77135;Laerm;48586;50.122;18.972;2023-05-14T01:28:07;36.82;34.08;45.05;;
77135;Laerm;48586;50.122;18.972;2023-05-14T01:30:21;40.80;34.20;51.82;;
77135;Laerm;48586;50.122;18.972;2023-05-14T01:32:31;38.27;34.14;48.07;;
77135;Laerm;48586;50.122;18.972;2023-05-14T01:34:38;36.07;34.26;51.73;;
77135;Laerm;48586;50.122;18.972;2023-05-14T01:36:49;39.21;34.64;48.10;;
77135;Laerm;48586;50.122;18.972;2023-05-14T01:38:56;36.53;34.17;46.32;;
77135;Laerm;48586;50.122;18.972;2023-05-14T01:41:02;36.35;34.49;41.16;;
77135;Laerm;48586;50.122;18.972;2023-05-14T01:43:08;39.91;34.32;52.11;;
77135;Laerm;48586;50.122;18.972;2023-05-14T01:45:13;40.23;34.26;52.54;;
77135;Laerm;48586;50.122;18.972;2023-05-14T01:47:17;35.91;34.20;40.32;;
77135;Laerm;48586;50.122;18.972;2023-05-14T01:49:22;35.65;34.13;40.71;;
77135;Laerm;48586;50.122;18.972;2023-05-14T01:51:26;37.17;34.38;42.77;;
77135;Laerm;48586;50.122;18.972;2023-05-14T01:53:33;40.79;34.61;50.29;;
77135;Laerm;48586;50.122;18.972;2023-05-14T01:55:38;41.84;35.09;52.30;;
77135;Laerm;48586;50.122;18.972;2023-05-14T01:57:42;39.39;34.69;49.91;;
77135;Laerm;48586;50.122;18.972;2023-05-14T01:59:46;36.50;34.47;44.54;;
77135;Laerm;48586;50.122;18.972;2023-05-14T02:01:51;36.57;34.39;41.61;;
77135;Laerm;48586;50.122;18.972;2023-05-14T02:03:55;40.42;35.13;51.23;;
77135;Laerm;48586;50.122;18.972;2023-05-14T02:05:59;37.44;34.84;49.35;;
77135;Laerm;48586;50.122;18.972;2023-05-14T02:08:04;37.28;34.23;44.98;;
77135;Laerm;48586;50.122;18.972;2023-05-14T02:10:11;37.02;34.77;42.59;;
77135;Laerm;48586;50.122;18.972;2023-05-14T02:12:16;41.13;34.37;51.98;;
77135;Laerm;48586;50.122;18.972;2023-05-14T02:14:20;36.39;34.41;45.20;;
77135;Laerm;48586;50.122;18.972;2023-05-14T02:16:25;36.39;34.56;42.59;;
77135;Laerm;48586;50.122;18.972;2023-05-14T02:18:28;36.41;34.17;42.63;;
77135;Laerm;48586;50.122;18.972;2023-05-14T02:20:33;43.55;34.38;56.15;;
77135;Laerm;48586;50.122;18.972;2023-05-14T02:22:37;36.89;34.51;46.16;;
77135;Laerm;48586;50.122;18.972;2023-05-14T02:24:42;36.67;34.51;43.63;;
77135;Laerm;48586;50.122;18.972;2023-05-14T02:26:49;37.49;34.81;46.45;;
77135;Laerm;48586;50.122;18.972;2023-05-14T02:28:53;36.99;34.52;47.75;;
77135;Laerm;48586;50.122;18.972;2023-05-14T02:30:58;41.09;34.95;52.85;;
77135;Laerm;48586;50.122;18.972;2023-05-14T02:33:03;40.78;35.39;50.36;;
77135;Laerm;48586;50.122;18.972;2023-05-14T02:35:08;37.79;35.07;43.65;;
77135;Laerm;48586;50.122;18.972;2023-05-14T02:37:12;42.59;35.92;50.69;;
77135;Laerm;48586;50.122;18.972;2023-05-14T02:39:17;39.36;35.76;57.56;;
77135;Laerm;48586;50.122;18.972;2023-05-14T02:41:21;41.21;35.67;50.65;;
77135;Laerm;48586;50.122;18.972;2023-05-14T02:43:29;41.18;35.99;54.46;;
77135;Laerm;48586;50.122;18.972;2023-05-14T02:45:34;38.91;35.23;47.27;;
77135;Laerm;48586;50.122;18.972;2023-05-14T02:47:38;38.45;35.24;44.68;;
77135;Laerm;48586;50.122;18.972;2023-05-14T02:49:43;38.29;35.07;50.68;;
77135;Laerm;48586;50.122;18.972;2023-05-14T02:51:48;43.13;35.16;55.97;;
77135;Laerm;48586;50.122;18.972;2023-05-14T02:53:54;40.22;34.87;61.08;;
77135;Laerm;48586;50.122;18.972;2023-05-14T02:55:58;40.65;35.40;63.01;;
77135;Laerm;48586;50.122;18.972;2023-05-14T02:58:03;38.44;34.81;47.03;;
77135;Laerm;48586;50.122;18.972;2023-05-14T03:00:11;41.65;35.16;51.49;;
77135;Laerm;48586;50.122;18.972;2023-05-14T03:02:16;40.77;35.41;48.86;;
77135;Laerm;48586;50.122;18.972;2023-05-14T03:04:20;43.47;35.72;53.85;;
77135;Laerm;48586;50.122;18.972;2023-05-14T03:06:24;38.33;35.12;50.49;;
77135;Laerm;48586;50.122;18.972;2023-05-14T03:08:28;38.42;35.63;53.59;;
77135;Laerm;48586;50.122;18.972;2023-05-14T03:10:33;37.71;35.06;43.62;;
77135;Laerm;48586;50.122;18.972;2023-05-14T03:12:37;37.79;35.14;49.92;;
77135;Laerm;48586;50.122;18.972;2023-05-14T03:14:41;46.41;35.05;61.62;;
77135;Laerm;48586;50.122;18.972;2023-05-14T03:16:49;46.22;35.62;58.27;;
77135;Laerm;48586;50.122;18.972;2023-05-14T03:18:53;40.21;35.26;52.50;;
77135;Laerm;48586;50.122;18.972;2023-05-14T03:20:57;40.64;35.36;52.65;;
77135;Laerm;48586;50.122;18.972;2023-05-14T03:23:02;41.11;35.19;53.63;;
77135;Laerm;48586;50.122;18.972;2023-05-14T03:25:08;38.90;35.25;46.70;;
77135;Laerm;48586;50.122;18.972;2023-05-14T03:27:12;44.49;37.26;52.08;;
77135;Laerm;48586;50.122;18.972;2023-05-14T03:29:17;44.97;35.53;56.23;;
77135;Laerm;48586;50.122;18.972;2023-05-14T03:31:21;38.71;35.33;45.79;;
77135;Laerm;48586;50.122;18.972;2023-05-14T03:33:28;43.01;36.83;56.44;;
77135;Laerm;48586;50.122;18.972;2023-05-14T03:35:33;42.70;35.71;54.45;;
77135;Laerm;48586;50.122;18.972;2023-05-14T03:37:37;37.93;35.33;57.30;;
77135;Laerm;48586;50.122;18.972;2023-05-14T03:39:41;42.21;35.18;52.22;;
77135;Laerm;48586;50.122;18.972;2023-05-14T03:41:47;38.84;35.47;51.29;;
77135;Laerm;48586;50.122;18.972;2023-05-14T03:43:51;42.55;35.79;53.10;;
77135;Laerm;48586;50.122;18.972;2023-05-14T03:45:55;39.70;35.47;48.37;;
77135;Laerm;48586;50.122;18.972;2023-05-14T03:48:01;44.68;35.66;54.80;;
77135;Laerm;48586;50.122;18.972;2023-05-14T03:50:09;46.10;35.13;56.88;;
77135;Laerm;48586;50.122;18.972;2023-05-14T03:52:14;43.03;35.36;56.62;;
77135;Laerm;48586;50.122;18.972;2023-05-14T03:54:19;41.68;35.38;51.48;;
77135;Laerm;48586;50.122;18.972;2023-05-14T03:56:24;41.74;35.29;53.84;;
77135;Laerm;48586;50.122;18.972;2023-05-14T03:58:28;43.01;35.25;56.47;;
77135;Laerm;48586;50.122;18.972;2023-05-14T04:00:35;42.35;35.19;52.83;;
77135;Laerm;48586;50.122;18.972;2023-05-14T04:02:39;39.02;35.23;47.91;;
77135;Laerm;48586;50.122;18.972;2023-05-14T04:04:43;37.71;35.02;47.10;;
77135;Laerm;48586;50.122;18.972;2023-05-14T04:06:50;45.05;34.94;56.42;;
77135;Laerm;48586;50.122;18.972;2023-05-14T04:08:54;42.47;35.79;49.75;;
77135;Laerm;48586;50.122;18.972;2023-05-14T04:10:58;45.04;35.49;57.30;;
77135;Laerm;48586;50.122;18.972;2023-05-14T04:13:03;42.61;35.09;57.83;;
77135;Laerm;48586;50.122;18.972;2023-05-14T04:15:11;40.99;34.86;51.87;;
77135;Laerm;48586;50.122;18.972;2023-05-14T04:17:15;44.83;35.21;56.42;;
77135;Laerm;48586;50.122;18.972;2023-05-14T04:19:20;39.18;35.47;47.95;;
77135;Laerm;48586;50.122;18.972;2023-05-14T04:21:24;41.54;35.34;53.80;;
77135;Laerm;48586;50.122;18.972;2023-05-14T04:23:31;43.62;34.91;59.84;;
77135;Laerm;48586;50.122;18.972;2023-05-14T04:25:36;43.16;35.08;55.35;;
77135;Laerm;48586;50.122;18.972;2023-05-14T04:27:40;39.75;34.97;61.17;;
77135;Laerm;48586;50.122;18.972;2023-05-14T04:29:44;42.83;35.62;53.83;;
77135;Laerm;48586;50.122;18.972;2023-05-14T04:31:49;43.10;35.79;52.65;;
77135;Laerm;48586;50.122;18.972;2023-05-14T04:33:53;37.43;35.03;50.86;;
77135;Laerm;48586;50.122;18.972;2023-05-14T04:35:57;39.05;35.23;56.23;;
77135;Laerm;48586;50.122;18.972;2023-05-14T04:38:02;42.17;34.91;53.64;;
77135;Laerm;48586;50.122;18.972;2023-05-14T04:40:10;43.11;35.31;54.33;;
77135;Laerm;48586;50.122;18.972;2023-05-14T04:42:15;38.42;35.09;51.78;;
77135;Laerm;48586;50.122;18.972;2023-05-14T04:44:20;39.81;35.03;50.23;;
77135;Laerm;48586;50.122;18.972;2023-05-14T04:46:24;44.97;34.96;57.92;;
77135;Laerm;48586;50.122;18.972;2023-05-14T04:48:28;42.18;35.67;52.48;;
77135;Laerm;48586;50.122;18.972;2023-05-14T04:50:34;41.26;35.13;53.64;;
77135;Laerm;48586;50.122;18.972;2023-05-14T04:52:38;41.20;34.99;54.07;;
77135;Laerm;48586;50.122;18.972;2023-05-14T04:54:42;40.28;34.64;51.82;;
77135;Laerm;48586;50.122;18.972;2023-05-14T04:56:49;41.57;35.07;52.73;;
77135;Laerm;48586;50.122;18.972;2023-05-14T04:58:55;42.21;35.48;55.40;;
77135;Laerm;48586;50.122;18.972;2023-05-14T05:00:59;45.06;35.58;56.93;;
77135;Laerm;48586;50.122;18.972;2023-05-14T05:03:04;40.60;36.05;50.38;;
77135;Laerm;48586;50.122;18.972;2023-05-14T05:05:09;41.79;35.24;53.99;;
77135;Laerm;48586;50.122;18.972;2023-05-14T05:07:13;42.63;35.75;53.63;;
77135;Laerm;48586;50.122;18.972;2023-05-14T05:09:18;40.16;35.62;56.23;;
77135;Laerm;48586;50.122;18.972;2023-05-14T05:11:22;43.01;36.40;54.85;;
77135;Laerm;48586;50.122;18.972;2023-05-14T05:13:28;41.33;35.30;57.28;;
77135;Laerm;48586;50.122;18.972;2023-05-14T05:15:33;65.81;36.08;80.69;;
77135;Laerm;48586;50.122;18.972;2023-05-14T05:17:37;71.59;37.20;84.14;;
77135;Laerm;48586;50.122;18.972;2023-05-14T05:19:41;43.90;35.99;57.77;;
77135;Laerm;48586;50.122;18.972;2023-05-14T05:21:46;47.51;35.51;57.86;;
77135;Laerm;48586;50.122;18.972;2023-05-14T05:23:51;44.96;35.46;68.49;;
77135;Laerm;48586;50.122;18.972;2023-05-14T05:25:55;38.33;34.94;48.16;;
77135;Laerm;48586;50.122;18.972;2023-05-14T05:28:00;37.42;34.58;48.91;;
77135;Laerm;48586;50.122;18.972;2023-05-14T05:30:09;48.10;35.95;57.04;;
77135;Laerm;48586;50.122;18.972;2023-05-14T05:32:13;42.83;35.83;51.74;;
77135;Laerm;48586;50.122;18.972;2023-05-14T05:34:18;45.57;36.21;54.19;;
77135;Laerm;48586;50.122;18.972;2023-05-14T05:36:22;45.34;34.88;59.77;;
77135;Laerm;48586;50.122;18.972;2023-05-14T05:38:26;41.69;35.72;52.20;;
77135;Laerm;48586;50.122;18.972;2023-05-14T05:40:32;39.77;35.13;48.23;;
77135;Laerm;48586;50.122;18.972;2023-05-14T05:42:36;38.80;35.02;45.59;;
77135;Laerm;48586;50.122;18.972;2023-05-14T05:44:40;42.00;35.12;53.09;;
77135;Laerm;48586;50.122;18.972;2023-05-14T05:46:47;47.52;35.45;65.37;;
77135;Laerm;48586;50.122;18.972;2023-05-14T05:48:51;42.87;35.17;52.05;;
77135;Laerm;48586;50.122;18.972;2023-05-14T05:50:55;41.65;35.20;52.79;;
77135;Laerm;48586;50.122;18.972;2023-05-14T05:53:00;43.07;35.38;53.49;;
77135;Laerm;48586;50.122;18.972;2023-05-14T05:55:06;44.48;36.13;65.30;;
77135;Laerm;48586;50.122;18.972;2023-05-14T05:57:10;45.98;37.84;58.80;;
77135;Laerm;48586;50.122;18.972;2023-05-14T05:59:15;40.07;35.41;52.86;;
77135;Laerm;48586;50.122;18.972;2023-05-14T06:01:19;43.09;35.27;62.01;;
77135;Laerm;48586;50.122;18.972;2023-05-14T06:03:25;41.03;35.56;52.83;;
77135;Laerm;48586;50.122;18.972;2023-05-14T06:05:30;43.12;35.86;52.73;;
77135;Laerm;48586;50.122;18.972;2023-05-14T06:07:35;44.62;35.50;56.32;;
77135;Laerm;48586;50.122;18.972;2023-05-14T06:09:39;42.55;35.09;63.10;;
77135;Laerm;48586;50.122;18.972;2023-05-14T06:11:44;45.58;35.82;55.53;;
77135;Laerm;48586;50.122;18.972;2023-05-14T06:13:48;45.44;35.46;56.29;;
77135;Laerm;48586;50.122;18.972;2023-05-14T06:15:52;42.88;35.19;55.72;;
77135;Laerm;48586;50.122;18.972;2023-05-14T06:17:57;41.66;35.36;53.25;;
77135;Laerm;48586;50.122;18.972;2023-05-14T06:20:06;39.39;34.79;49.58;;
77135;Laerm;48586;50.122;18.972;2023-05-14T06:22:11;45.01;35.05;62.19;;
77135;Laerm;48586;50.122;18.972;2023-05-14T06:24:16;44.28;36.02;54.54;;
77135;Laerm;48586;50.122;18.972;2023-05-14T06:26:20;45.67;36.26;53.85;;
77135;Laerm;48586;50.122;18.972;2023-05-14T06:28:24;44.98;36.51;56.42;;
77135;Laerm;48586;50.122;18.972;2023-05-14T06:30:29;44.59;35.26;65.05;;
77135;Laerm;48586;50.122;18.972;2023-05-14T06:32:33;43.22;35.64;62.18;;
77135;Laerm;48586;50.122;18.972;2023-05-14T06:34:37;44.60;35.46;68.59;;
77135;Laerm;48586;50.122;18.972;2023-05-14T06:36:44;44.89;35.48;56.04;;
77135;Laerm;48586;50.122;18.972;2023-05-14T06:38:48;42.60;35.17;56.25;;
77135;Laerm;48586;50.122;18.972;2023-05-14T06:40:52;42.78;35.52;56.46;;
77135;Laerm;48586;50.122;18.972;2023-05-14T06:42:57;41.81;35.24;52.45;;
77135;Laerm;48586;50.122;18.972;2023-05-14T06:45:01;42.56;35.22;52.30;;
77135;Laerm;48586;50.122;18.972;2023-05-14T06:47:06;43.59;35.70;52.63;;
77135;Laerm;48586;50.122;18.972;2023-05-14T06:49:11;45.31;37.10;58.15;;
77135;Laerm;48586;50.122;18.972;2023-05-14T06:51:15;46.27;39.14;52.90;;
77135;Laerm;48586;50.122;18.972;2023-05-14T06:53:22;44.11;35.64;59.39;;
77135;Laerm;48586;50.122;18.972;2023-05-14T06:55:27;45.13;36.40;57.78;;
77135;Laerm;48586;50.122;18.972;2023-05-14T06:57:31;45.61;36.17;56.57;;
77135;Laerm;48586;50.122;18.972;2023-05-14T06:59:35;43.85;38.74;54.17;;
77135;Laerm;48586;50.122;18.972;2023-05-14T07:01:40;45.00;36.57;61.02;;
77135;Laerm;48586;50.122;18.972;2023-05-14T07:03:44;47.21;37.57;60.96;;
77135;Laerm;48586;50.122;18.972;2023-05-14T07:05:48;40.92;35.63;52.19;;
77135;Laerm;48586;50.122;18.972;2023-05-14T07:07:53;45.67;37.39;58.07;;
77135;Laerm;48586;50.122;18.972;2023-05-14T07:10:00;46.00;36.68;62.87;;
77135;Laerm;48586;50.122;18.972;2023-05-14T07:12:06;44.22;35.21;54.73;;
77135;Laerm;48586;50.122;18.972;2023-05-14T07:14:11;44.31;35.25;52.89;;
77135;Laerm;48586;50.122;18.972;2023-05-14T07:16:16;72.38;36.31;81.59;;
77135;Laerm;48586;50.122;18.972;2023-05-14T07:18:20;71.13;37.61;81.37;;
77135;Laerm;48586;50.122;18.972;2023-05-14T07:20:26;47.87;37.79;65.27;;
77135;Laerm;48586;50.122;18.972;2023-05-14T07:22:32;45.87;37.35;57.40;;
77135;Laerm;48586;50.122;18.972;2023-05-14T07:24:36;45.80;36.37;54.27;;
77135;Laerm;48586;50.122;18.972;2023-05-14T07:26:44;43.55;36.29;53.67;;
77135;Laerm;48586;50.122;18.972;2023-05-14T07:28:49;47.13;37.34;56.88;;
77135;Laerm;48586;50.122;18.972;2023-05-14T07:30:54;43.29;35.72;66.74;;
77135;Laerm;48586;50.122;18.972;2023-05-14T07:32:59;46.55;36.61;65.10;;
77135;Laerm;48586;50.122;18.972;2023-05-14T07:35:05;48.18;36.82;64.49;;
77135;Laerm;48586;50.122;18.972;2023-05-14T07:37:10;45.72;36.06;53.45;;
77135;Laerm;48586;50.122;18.972;2023-05-14T07:39:15;42.79;35.57;53.00;;
77135;Laerm;48586;50.122;18.972;2023-05-14T07:41:20;44.52;36.47;54.69;;
77135;Laerm;48586;50.122;18.972;2023-05-14T07:43:28;46.27;36.28;58.18;;
77135;Laerm;48586;50.122;18.972;2023-05-14T07:45:36;45.87;37.40;53.89;;
77135;Laerm;48586;50.122;18.972;2023-05-14T07:47:41;46.98;36.08;57.59;;
77135;Laerm;48586;50.122;18.972;2023-05-14T07:49:46;43.27;36.20;60.05;;
77135;Laerm;48586;50.122;18.972;2023-05-14T07:51:52;45.00;35.83;56.45;;
77135;Laerm;48586;50.122;18.972;2023-05-14T07:53:56;44.92;36.80;55.83;;
77135;Laerm;48586;50.122;18.972;2023-05-14T07:56:00;44.76;36.90;57.48;;
77135;Laerm;48586;50.122;18.972;2023-05-14T07:58:07;46.33;36.63;61.02;;
77135;Laerm;48586;50.122;18.972;2023-05-14T08:00:15;40.86;35.61;55.24;;
77135;Laerm;48586;50.122;18.972;2023-05-14T08:02:23;46.53;36.35;59.02;;
77135;Laerm;48586;50.122;18.972;2023-05-14T08:04:30;45.15;36.73;57.36;;
77135;Laerm;48586;50.122;18.972;2023-05-14T08:06:37;43.57;36.92;52.84;;
77135;Laerm;48586;50.122;18.972;2023-05-14T08:08:42;45.20;35.87;56.39;;
77135;Laerm;48586;50.122;18.972;2023-05-14T08:10:48;43.67;35.93;50.44;;
77135;Laerm;48586;50.122;18.972;2023-05-14T08:12:53;43.86;36.10;52.29;;
77135;Laerm;48586;50.122;18.972;2023-05-14T08:14:59;43.09;36.00;53.85;;
77135;Laerm;48586;50.122;18.972;2023-05-14T08:17:07;44.11;35.78;54.12;;
77135;Laerm;48586;50.122;18.972;2023-05-14T08:19:13;67.45;36.23;87.04;;
77135;Laerm;48586;50.122;18.972;2023-05-14T08:21:18;51.90;35.91;65.93;;
77135;Laerm;48586;50.122;18.972;2023-05-14T08:23:23;47.05;36.52;58.42;;
77135;Laerm;48586;50.122;18.972;2023-05-14T08:25:29;44.81;36.47;54.10;;
77135;Laerm;48586;50.122;18.972;2023-05-14T08:27:34;46.73;38.03;56.19;;
77135;Laerm;48586;50.122;18.972;2023-05-14T08:29:40;45.45;38.84;55.16;;
77135;Laerm;48586;50.122;18.972;2023-05-14T08:31:44;46.22;39.22;58.44;;
77135;Laerm;48586;50.122;18.972;2023-05-14T08:33:51;46.20;39.19;59.22;;
77135;Laerm;48586;50.122;18.972;2023-05-14T08:35:58;46.04;38.84;56.92;;
77135;Laerm;48586;50.122;18.972;2023-05-14T08:38:03;44.38;38.71;56.88;;
77135;Laerm;48586;50.122;18.972;2023-05-14T08:40:09;45.83;37.15;57.88;;
77135;Laerm;48586;50.122;18.972;2023-05-14T08:42:23;46.65;35.93;58.57;;
77135;Laerm;48586;50.122;18.972;2023-05-14T08:44:38;46.66;37.81;57.81;;
77135;Laerm;48586;50.122;18.972;2023-05-14T08:46:50;73.10;40.43;81.37;;
77135;Laerm;48586;50.122;18.972;2023-05-14T08:49:14;65.10;37.58;79.61;;
77135;Laerm;48586;50.122;18.972;2023-05-14T08:51:27;45.00;37.76;54.93;;
77135;Laerm;48586;50.122;18.972;2023-05-14T08:53:31;46.04;38.84;54.71;;
77135;Laerm;48586;50.122;18.972;2023-05-14T08:55:37;43.70;36.91;56.97;;
77135;Laerm;48586;50.122;18.972;2023-05-14T08:57:42;44.74;36.36;59.70;;
77135;Laerm;48586;50.122;18.972;2023-05-14T08:59:46;44.69;36.70;55.57;;
77135;Laerm;48586;50.122;18.972;2023-05-14T09:01:55;47.93;38.48;59.26;;
77135;Laerm;48586;50.122;18.972;2023-05-14T09:04:05;44.97;38.65;55.89;;
77135;Laerm;48586;50.122;18.972;2023-05-14T09:06:14;43.70;36.44;61.25;;
77135;Laerm;48586;50.122;18.972;2023-05-14T09:08:20;45.41;36.90;57.93;;
77135;Laerm;48586;50.122;18.972;2023-05-14T09:10:25;46.25;36.95;62.80;;
77135;Laerm;48586;50.122;18.972;2023-05-14T09:12:30;47.66;38.31;59.59;;
77135;Laerm;48586;50.122;18.972;2023-05-14T09:14:35;45.27;37.37;53.81;;
77135;Laerm;48586;50.122;18.972;2023-05-14T09:16:42;44.80;37.34;58.60;;
77135;Laerm;48586;50.122;18.972;2023-05-14T09:18:50;45.00;38.13;53.90;;
77135;Laerm;48586;50.122;18.972;2023-05-14T09:20:58;41.93;36.43;53.64;;
77135;Laerm;48586;50.122;18.972;2023-05-14T09:23:03;44.11;36.23;54.22;;
77135;Laerm;48586;50.122;18.972;2023-05-14T09:25:10;46.22;36.20;55.08;;
77135;Laerm;48586;50.122;18.972;2023-05-14T09:27:19;45.86;36.81;56.51;;
77135;Laerm;48586;50.122;18.972;2023-05-14T09:29:27;43.82;35.62;53.77;;
77135;Laerm;48586;50.122;18.972;2023-05-14T09:31:33;44.00;38.14;54.26;;
77135;Laerm;48586;50.122;18.972;2023-05-14T09:33:39;42.30;36.47;54.27;;
77135;Laerm;48586;50.122;18.972;2023-05-14T09:35:43;47.74;36.21;67.56;;
77135;Laerm;48586;50.122;18.972;2023-05-14T09:37:53;45.91;36.43;65.70;;
77135;Laerm;48586;50.122;18.972;2023-05-14T09:40:06;46.17;37.59;60.59;;
77135;Laerm;48586;50.122;18.972;2023-05-14T09:42:11;45.55;38.29;56.30;;
77135;Laerm;48586;50.122;18.972;2023-05-14T09:44:16;47.71;37.13;64.75;;
77135;Laerm;48586;50.122;18.972;2023-05-14T09:46:21;47.70;36.64;65.71;;
77135;Laerm;48586;50.122;18.972;2023-05-14T09:48:31;44.16;36.25;54.12;;
77135;Laerm;48586;50.122;18.972;2023-05-14T09:50:41;45.58;36.86;54.49;;
77135;Laerm;48586;50.122;18.972;2023-05-14T09:52:46;45.82;38.33;61.94;;
77135;Laerm;48586;50.122;18.972;2023-05-14T09:54:54;45.24;38.52;53.37;;
77135;Laerm;48586;50.122;18.972;2023-05-14T09:56:59;46.61;39.49;55.40;;
77135;Laerm;48586;50.122;18.972;2023-05-14T09:59:04;48.40;42.99;56.59;;
77135;Laerm;48586;50.122;18.972;2023-05-14T10:01:10;48.08;40.51;56.29;;
77135;Laerm;48586;50.122;18.972;2023-05-14T10:03:15;49.18;39.76;58.27;;
77135;Laerm;48586;50.122;18.972;2023-05-14T10:05:23;45.24;37.77;56.32;;
77135;Laerm;48586;50.122;18.972;2023-05-14T10:07:37;46.50;36.56;58.43;;
77135;Laerm;48586;50.122;18.972;2023-05-14T10:09:45;48.44;37.65;66.67;;
77135;Laerm;48586;50.122;18.972;2023-05-14T10:12:00;46.84;37.85;61.93;;
77135;Laerm;48586;50.122;18.972;2023-05-14T10:14:08;45.15;37.85;54.21;;
77135;Laerm;48586;50.122;18.972;2023-05-14T10:16:27;46.88;36.85;60.11;;
77135;Laerm;48586;50.122;18.972;2023-05-14T10:18:41;46.04;36.60;61.82;;
77135;Laerm;48586;50.122;18.972;2023-05-14T10:21:02;48.91;37.49;66.81;;
77135;Laerm;48586;50.122;18.972;2023-05-14T10:23:09;44.53;38.36;55.93;;
77135;Laerm;48586;50.122;18.972;2023-05-14T10:25:16;44.42;37.71;54.37;;
77135;Laerm;48586;50.122;18.972;2023-05-14T10:27:26;49.47;38.34;66.19;;
77135;Laerm;48586;50.122;18.972;2023-05-14T10:29:35;48.45;41.18;60.17;;
77135;Laerm;48586;50.122;18.972;2023-05-14T10:31:47;46.15;40.46;55.20;;
77135;Laerm;48586;50.122;18.972;2023-05-14T10:33:53;45.97;40.55;56.54;;
77135;Laerm;48586;50.122;18.972;2023-05-14T10:36:02;46.38;40.72;60.59;;
77135;Laerm;48586;50.122;18.972;2023-05-14T10:38:09;46.10;37.95;59.20;;
77135;Laerm;48586;50.122;18.972;2023-05-14T10:40:13;48.27;40.55;54.80;;
77135;Laerm;48586;50.122;18.972;2023-05-14T10:42:25;46.63;39.27;58.54;;
77135;Laerm;48586;50.122;18.972;2023-05-14T10:44:35;45.95;36.98;56.67;;
77135;Laerm;48586;50.122;18.972;2023-05-14T10:46:43;47.96;38.73;56.86;;
77135;Laerm;48586;50.122;18.972;2023-05-14T10:48:50;47.38;39.04;59.56;;
77135;Laerm;48586;50.122;18.972;2023-05-14T10:50:56;48.07;37.69;57.72;;
77135;Laerm;48586;50.122;18.972;2023-05-14T10:53:02;48.72;37.92;66.01;;
77135;Laerm;48586;50.122;18.972;2023-05-14T10:55:11;46.20;37.64;58.89;;
77135;Laerm;48586;50.122;18.972;2023-05-14T10:57:17;45.56;37.88;55.39;;
77135;Laerm;48586;50.122;18.972;2023-05-14T10:59:28;44.43;36.79;55.01;;
77135;Laerm;48586;50.122;18.972;2023-05-14T11:01:33;45.47;37.67;59.47;;
77135;Laerm;48586;50.122;18.972;2023-05-14T11:03:42;46.52;36.51;60.61;;
77135;Laerm;48586;50.122;18.972;2023-05-14T11:05:48;47.46;38.14;56.61;;
77135;Laerm;48586;50.122;18.972;2023-05-14T11:07:57;49.22;39.51;62.84;;
77135;Laerm;48586;50.122;18.972;2023-05-14T11:10:05;47.90;37.58;58.21;;
77135;Laerm;48586;50.122;18.972;2023-05-14T11:12:11;47.95;38.52;55.09;;
77135;Laerm;48586;50.122;18.972;2023-05-14T11:14:17;46.56;38.26;53.85;;
77135;Laerm;48586;50.122;18.972;2023-05-14T11:16:27;46.07;38.82;59.24;;
77135;Laerm;48586;50.122;18.972;2023-05-14T11:18:33;44.96;38.34;55.54;;
77135;Laerm;48586;50.122;18.972;2023-05-14T11:20:39;45.01;36.18;60.83;;
77135;Laerm;48586;50.122;18.972;2023-05-14T11:22:47;47.24;37.07;55.11;;
77135;Laerm;48586;50.122;18.972;2023-05-14T11:24:52;46.17;38.52;57.71;;
77135;Laerm;48586;50.122;18.972;2023-05-14T11:26:58;44.49;37.19;53.02;;
77135;Laerm;48586;50.122;18.972;2023-05-14T11:29:04;49.84;41.00;63.37;;
77135;Laerm;48586;50.122;18.972;2023-05-14T11:31:10;49.29;38.42;63.87;;
77135;Laerm;48586;50.122;18.972;2023-05-14T11:33:19;47.67;37.86;59.19;;
77135;Laerm;48586;50.122;18.972;2023-05-14T11:35:25;46.28;37.54;55.95;;